BAW27R EGYP-EGYP
Flight info
| Callsign | BAW27R |
|---|---|
| Flight time | 0h 7m |
| Altitude | 35000 |
| Route | 514519S0585057W 515801S0590649W 523200S0585025W DCT OTAGI UT103 VURGI/N0465F370 UT103 MBI/N0460F360 DCT 641434S0572114W 650530S0611432W 651601S0642025W 642427S0612226W/N0459F380 633444S0584136W 610651S0543421W DCT 515312S0581529W DCT 515033S0581837W |
| Aircraft | A20N/M-SDE2E3FGHIRWXY/LB1 |
Departure
| Time | 2026-05-04 11:48 |
|---|---|
| Airport | Mount Pleasant Airport / RAF Mount Pleasant (EGYP) |
Arrival
| Time | 2026-05-04 11:56 |
|---|---|
| Airport | Mount Pleasant Airport / RAF Mount Pleasant (EGYP) |
| Time | Latitude | Longitude | Altitude | Speed | Heading |
|---|---|---|---|---|---|
| 2026-05-04 11:38 | -51.82160 | -58.47211 | 223 ft | 0 kts | 17° |
| 2026-05-04 11:44 | -51.82154 | -58.47207 | 223 ft | 1 kts | 21° |
| 2026-05-04 11:44 | -51.82143 | -58.47198 | 224 ft | 2 kts | 26° |
| 2026-05-04 11:45 | -51.82125 | -58.47191 | 223 ft | 3 kts | 5° |
| 2026-05-04 11:45 | -51.82101 | -58.47196 | 223 ft | 4 kts | 349° |
| 2026-05-04 11:45 | -51.82070 | -58.47210 | 222 ft | 6 kts | 344° |
| 2026-05-04 11:45 | -51.82012 | -58.47245 | 222 ft | 10 kts | 325° |
| 2026-05-04 11:46 | -51.81976 | -58.47348 | 226 ft | 12 kts | 287° |
| 2026-05-04 11:46 | -51.81947 | -58.47480 | 224 ft | 13 kts | 306° |
| 2026-05-04 11:46 | -51.81860 | -58.47527 | 227 ft | 14 kts | 11° |
| 2026-05-04 11:46 | -51.81793 | -58.47431 | 223 ft | 13 kts | 86° |
| 2026-05-04 11:47 | -51.81798 | -58.47380 | 222 ft | 0 kts | 93° |
| 2026-05-04 11:47 | -51.81798 | -58.47378 | 222 ft | 0 kts | 94° |
| 2026-05-04 11:47 | -51.81826 | -58.47197 | 224 ft | 52 kts | 106° |
| 2026-05-04 11:47 | -51.81995 | -58.46225 | 224 ft | 129 kts | 106° |
| 2026-05-04 11:48 | -51.82253 | -58.44643 | 647 ft | 152 kts | 105° |
| 2026-05-04 11:48 | -51.82505 | -58.42839 | 1095 ft | 165 kts | 104° |
| 2026-05-04 11:48 | -51.82987 | -58.41125 | 1804 ft | 182 kts | 100° |
| 2026-05-04 11:48 | -51.83198 | -58.39335 | 2254 ft | 131 kts | 166° |
| 2026-05-04 11:49 | -51.83104 | -58.38873 | 1565 ft | 127 kts | 134° |
| 2026-05-04 11:49 | -51.83485 | -58.37026 | 935 ft | 229 kts | 83° |
| 2026-05-04 11:49 | -51.82645 | -58.34888 | 2086 ft | 228 kts | 43° |
| 2026-05-04 11:49 | -51.81448 | -58.32987 | 2878 ft | 261 kts | 56° |
| 2026-05-04 11:50 | -51.80711 | -58.30015 | 3015 ft | 314 kts | 83° |
| 2026-05-04 11:50 | -51.80842 | -58.26220 | 3018 ft | 364 kts | 105° |
| 2026-05-04 11:50 | -51.81757 | -58.22666 | 5306 ft | 314 kts | 115° |
| 2026-05-04 11:50 | -51.82083 | -58.19525 | 8543 ft | 260 kts | 78° |
| 2026-05-04 11:51 | -51.81146 | -58.17404 | 10881 ft | 217 kts | 21° |
| 2026-05-04 11:51 | -51.79877 | -58.17453 | 12357 ft | 168 kts | 311° |
| 2026-05-04 11:51 | -51.79182 | -58.18951 | 12275 ft | 204 kts | 307° |
| 2026-05-04 11:51 | -51.78141 | -58.21325 | 11167 ft | 306 kts | 309° |
| 2026-05-04 11:52 | -51.76237 | -58.23533 | 11043 ft | 364 kts | 334° |
| 2026-05-04 11:52 | -51.73668 | -58.24422 | 11646 ft | 394 kts | 355° |
| 2026-05-04 11:52 | -51.70894 | -58.23827 | 12254 ft | 414 kts | 14° |
| 2026-05-04 11:52 | -51.68264 | -58.21710 | 12896 ft | 429 kts | 34° |
| 2026-05-04 11:53 | -51.66128 | -58.18279 | 13504 ft | 439 kts | 53° |
| 2026-05-04 11:53 | -51.64737 | -58.13922 | 14149 ft | 445 kts | 72° |
| 2026-05-04 11:53 | -51.64213 | -58.09002 | 14792 ft | 448 kts | 90° |
| 2026-05-04 11:53 | -51.64547 | -58.04052 | 15357 ft | 449 kts | 104° |
| 2026-05-04 11:55 | -51.79327 | -58.40643 | 663 ft | 1219 kts | 234° |
| 2026-05-04 11:55 | -51.82089 | -58.43529 | 663 ft | 725 kts | 234° |
| 2026-05-04 11:56 | -51.82112 | -58.46651 | 222 ft | 0 kts | 234° |
| 2026-05-04 12:00 | -51.82112 | -58.46652 | 222 ft | 0 kts | 234° |